Time;durP1;ratioP1;P1;durP2;ratioP2;P2;SDS_P1;SDS_P2;PMS_P1;PMS_P2;Temp;Humidity;BMP_temperature;BMP_pressure;BME280_temperature;BME280_humidity;BME280_pressure;Samples;Min_cycle;Max_cycle;Signal;HPM_P1;HPM_P2
2021/05/09 00:00:48;;;;;;;;;;;;;;;8.61;70.35;100282.03;3059722;77;20153;-63
2021/05/09 00:04:59;;;;;;;;;;;;;;;8.60;70.40;100279.51;3011491;78;20500;-63
2021/05/09 00:09:11;;;;;;;;;;;;;;;8.62;70.66;100273.61;3068695;77;20657;-62
2021/05/09 00:13:22;;;;;;;;;;;;;;;8.65;70.64;100266.28;3095398;76;20191;-62
2021/05/09 00:17:34;;;;;;;;;;;;;;;8.65;70.71;100265.42;3068775;77;20378;-63
2021/05/09 00:21:46;;;;;;;;;;;;;;;8.71;70.93;100264.48;3059848;77;20168;-63
2021/05/09 00:25:58;;;;;;;;;;;;;;;8.77;70.93;100257.89;3060176;77;20140;-64
2021/05/09 00:30:11;;;;;;;;;;;;;;;8.82;70.51;100262.36;3060336;77;20148;-63
2021/05/09 00:34:24;;;;;;;;;;;;;;;8.81;70.64;100250.52;3068259;77;20149;-62
2021/05/09 00:38:36;;;;;;;;;;;;;;;8.76;70.65;100245.59;3059841;77;20255;-63
2021/05/09 00:42:48;;;;;;;;;;;;;;;8.66;70.45;100245.43;3045116;76;20207;-63
2021/05/09 00:47:08;;;;;;;;;;;;;;;8.56;70.94;100239.11;3059679;77;20160;-63
2021/05/09 00:51:21;;;;;;;;;;;;;;;8.46;71.06;100232.28;3059609;77;20397;-63
2021/05/09 00:55:33;;;;;;;;;;;;;;;8.37;70.98;100239.11;3059529;77;20549;-62
2021/05/09 00:59:47;;;;;;;;;;;;;;;8.29;71.30;100228.23;3059678;77;20527;-62
2021/05/09 01:04:00;;;;;;;;;;;;;;;8.23;71.40;100228.20;3068287;77;20192;-63
2021/05/09 01:08:13;;;;;;;;;;;;;;;8.11;72.06;100225.11;3059721;77;20145;-62
2021/05/09 01:12:25;;;;;;;;;;;;;;;8.06;72.37;100225.46;3059913;77;20523;-63
2021/05/09 01:16:44;;;;;;;;;;;;;;;8.08;72.42;100231.95;3072936;77;20173;-63
2021/05/09 01:21:01;;;;;;;;;;;;;;;8.07;72.42;100219.20;3061551;76;21052;-63
2021/05/09 01:25:12;;;;;;;;;;;;;;;7.97;72.72;100219.48;3068466;77;20199;-63
2021/05/09 01:29:24;;;;;;;;;;;;;;;7.86;73.07;100215.83;3068368;77;20144;-63
2021/05/09 01:33:36;;;;;;;;;;;;;;;7.83;73.30;100216.02;3059718;77;20169;-63
2021/05/09 01:37:48;;;;;;;;;;;;;;;7.79;73.48;100213.23;3059886;77;20211;-63
2021/05/09 01:42:02;;;;;;;;;;;;;;;7.80;73.27;100212.77;3068261;77;20219;-63
2021/05/09 01:46:14;;;;;;;;;;;;;;;7.77;73.15;100207.69;3068194;77;20208;-63
2021/05/09 01:50:47;;;;;;;;;;;;;;;7.67;73.48;100202.20;3068333;77;20587;-63
2021/05/09 01:54:59;;;;;;;;;;;;;;;7.55;74.06;100198.14;3128647;76;20183;-63
2021/05/09 01:59:11;;;;;;;;;;;;;;;7.43;74.58;100200.31;3068125;77;20152;-63
2021/05/09 02:03:22;;;;;;;;;;;;;;;7.40;74.72;100200.07;3068247;77;21111;-62
2021/05/09 02:07:35;;;;;;;;;;;;;;;7.45;74.60;100197.08;3011318;77;20135;-63
2021/05/09 02:11:47;;;;;;;;;;;;;;;7.53;74.35;100204.48;3059590;77;20215;-63
2021/05/09 02:15:59;;;;;;;;;;;;;;;7.63;74.00;100195.41;3059450;77;20160;-63
2021/05/09 02:20:11;;;;;;;;;;;;;;;7.70;73.64;100200.16;3059412;77;20172;-62
2021/05/09 02:24:23;;;;;;;;;;;;;;;7.71;73.61;100197.88;3068439;77;20540;-62
2021/05/09 02:28:35;;;;;;;;;;;;;;;7.74;73.58;100198.16;3059626;77;20149;-62
2021/05/09 02:32:49;;;;;;;;;;;;;;;7.77;73.74;100192.63;3068247;77;20203;-62
2021/05/09 02:37:03;;;;;;;;;;;;;;;7.76;74.58;100186.97;3059631;77;20211;-62
2021/05/09 02:41:15;;;;;;;;;;;;;;;7.76;74.99;100180.35;3060222;77;20157;-62
2021/05/09 02:45:26;;;;;;;;;;;;;;;7.84;75.23;100174.50;3014365;78;21122;-62
2021/05/09 02:49:40;;;;;;;;;;;;;;;7.92;75.52;100172.13;3059735;77;20204;-62
2021/05/09 02:53:52;;;;;;;;;;;;;;;8.00;75.83;100169.80;3059800;77;20551;-63
2021/05/09 02:58:03;;;;;;;;;;;;;;;8.12;75.59;100167.19;3021289;77;20127;-63
2021/05/09 03:02:21;;;;;;;;;;;;;;;8.27;75.59;100178.48;3068249;77;20140;-62
2021/05/09 03:06:35;;;;;;;;;;;;;;;8.37;75.80;100183.44;3025264;77;20135;-62
2021/05/09 03:10:47;;;;;;;;;;;;;;;8.43;75.72;100189.60;3072857;77;20556;-63
2021/05/09 03:14:58;;;;;;;;;;;;;;;8.52;75.84;100183.30;3059594;77;20231;-63
2021/05/09 03:19:10;;;;;;;;;;;;;;;8.60;76.28;100192.00;3059774;77;20555;-62
2021/05/09 03:23:21;;;;;;;;;;;;;;;8.67;76.55;100184.80;3013375;78;20160;-62
2021/05/09 03:27:33;;;;;;;;;;;;;;;8.77;76.41;100180.11;3059502;77;20535;-63
2021/05/09 03:31:44;;;;;;;;;;;;;;;8.81;76.46;100182.42;3059732;77;20136;-63
2021/05/09 03:35:58;;;;;;;;;;;;;;;8.89;76.26;100167.72;3015033;78;20121;-64
2021/05/09 03:40:10;;;;;;;;;;;;;;;8.97;76.12;100170.14;3014945;78;20195;-62
2021/05/09 03:44:23;;;;;;;;;;;;;;;9.03;76.37;100165.31;3059790;77;20133;-63
2021/05/09 03:48:35;;;;;;;;;;;;;;;9.08;76.60;100165.83;3059708;77;20172;-63
2021/05/09 03:52:47;;;;;;;;;;;;;;;9.15;76.52;100153.77;3068381;77;20192;-62
2021/05/09 03:57:00;;;;;;;;;;;;;;;9.21;76.38;100154.59;3059677;77;20125;-62
2021/05/09 04:01:11;;;;;;;;;;;;;;;9.25;76.51;100149.44;3014749;78;20128;-62
2021/05/09 04:05:24;;;;;;;;;;;;;;;9.38;76.23;100147.12;3042370;77;20148;-63
2021/05/09 04:09:36;;;;;;;;;;;;;;;9.72;75.94;100149.75;3071865;77;20146;-62
2021/05/09 04:13:50;;;;;;;;;;;;;;;10.54;76.82;100147.55;3059722;77;20133;-62
2021/05/09 04:18:04;;;;;;;;;;;;;;;11.34;72.73;100143.02;3061908;76;20484;-63
2021/05/09 04:22:16;;;;;;;;;;;;;;;11.77;70.49;100141.05;3068802;77;20200;-63
2021/05/09 04:26:29;;;;;;;;;;;;;;;12.16;69.08;100141.13;3060117;77;20370;-63
2021/05/09 04:30:42;;;;;;;;;;;;;;;13.17;68.76;100134.98;3060512;77;20216;-63
2021/05/09 04:34:53;;;;;;;;;;;;;;;14.13;66.30;100137.26;3010911;79;20198;-63
2021/05/09 04:39:06;;;;;;;;;;;;;;;14.96;63.18;100129.05;3060737;77;20208;-63
2021/05/09 04:43:19;;;;;;;;;;;;;;;15.41;61.89;100133.80;3055366;76;20135;-62
2021/05/09 04:47:31;;;;;;;;;;;;;;;15.73;60.42;100132.25;3060783;77;20196;-63
2021/05/09 04:51:43;;;;;;;;;;;;;;;15.88;60.05;100140.98;3069671;77;20145;-64
2021/05/09 04:55:59;;;;;;;;;;;;;;;16.01;59.82;100138.70;3069803;77;20133;-63
2021/05/09 05:00:16;;;;;;;;;;;;;;;16.34;59.78;100142.77;3061105;77;20575;-64
2021/05/09 05:04:28;;;;;;;;;;;;;;;16.68;59.01;100137.70;3015373;78;20179;-64
2021/05/09 05:08:41;;;;;;;;;;;;;;;17.15;59.02;100135.30;3070102;77;20203;-63
2021/05/09 05:12:57;;;;;;;;;;;;;;;17.54;57.57;100131.79;2991324;77;20538;-62
2021/05/09 05:17:08;;;;;;;;;;;;;;;17.91;57.00;100133.95;3071375;77;20177;-62
2021/05/09 05:21:19;;;;;;;;;;;;;;;18.21;56.23;100129.56;3023133;78;20131;-62
2021/05/09 05:25:31;;;;;;;;;;;;;;;18.50;55.89;100132.53;3023251;78;20158;-62
2021/05/09 05:29:44;;;;;;;;;;;;;;;18.67;55.03;100126.48;3023474;78;20134;-62
2021/05/09 05:33:59;;;;;;;;;;;;;;;18.73;55.21;100130.30;3063651;77;20141;-62
2021/05/09 05:38:10;;;;;;;;;;;;;;;18.96;55.77;100139.65;2952508;79;20457;-62
2021/05/09 05:42:23;;;;;;;;;;;;;;;19.12;55.98;100127.91;3024142;78;20154;-63
2021/05/09 05:46:36;;;;;;;;;;;;;;;19.58;55.66;100131.38;3051585;77;20137;-63
2021/05/09 05:50:49;;;;;;;;;;;;;;;19.87;53.63;100135.05;3024779;78;20138;-63
2021/05/09 05:55:01;;;;;;;;;;;;;;;19.94;52.66;100133.28;3025099;78;20131;-63
2021/05/09 05:59:13;;;;;;;;;;;;;;;20.16;50.80;100130.59;3052344;77;20149;-63
2021/05/09 06:03:30;;;;;;;;;;;;;;;19.89;52.85;100133.81;3016227;79;20119;-63
2021/05/09 06:07:40;;;;;;;;;;;;;;;20.01;51.17;100128.77;3025808;77;20131;-63
2021/05/09 06:11:54;;;;;;;;;;;;;;;20.20;49.17;100123.77;3065587;77;20132;-63
2021/05/09 06:16:06;;;;;;;;;;;;;;;20.03;48.80;100113.75;3064625;77;20137;-65
2021/05/09 06:20:19;;;;;;;;;;;;;;;20.03;49.69;100118.63;3024475;78;20111;-65
2021/05/09 06:24:30;;;;;;;;;;;;;;;20.02;48.31;100125.05;3024247;78;20127;-63
2021/05/09 06:28:42;;;;;;;;;;;;;;;20.02;49.26;100126.93;3073816;77;20172;-64
2021/05/09 06:32:53;;;;;;;;;;;;;;;19.95;47.67;100120.95;3024635;78;20185;-65
2021/05/09 06:37:04;;;;;;;;;;;;;;;19.86;49.03;100118.54;3024635;77;20138;-63
2021/05/09 06:41:18;;;;;;;;;;;;;;;19.75;48.67;100115.30;3051347;77;20489;-63
2021/05/09 06:45:30;;;;;;;;;;;;;;;19.66;49.64;100111.05;3024265;78;20158;-64
2021/05/09 06:49:42;;;;;;;;;;;;;;;19.70;49.48;100116.39;3073706;77;20141;-62
2021/05/09 06:53:55;;;;;;;;;;;;;;;19.70;49.71;100105.59;3073884;77;20199;-63
2021/05/09 06:58:09;;;;;;;;;;;;;;;19.73;49.32;100110.61;3051352;77;20547;-67
2021/05/09 07:02:21;;;;;;;;;;;;;;;19.67;49.15;100110.03;3009953;79;20157;-66
2021/05/09 07:06:34;;;;;;;;;;;;;;;19.72;50.65;100111.64;3032028;77;20178;-66
2021/05/09 07:10:46;;;;;;;;;;;;;;;19.98;49.69;100109.77;3064883;77;20192;-66
2021/05/09 07:15:00;;;;;;;;;;;;;;;20.20;48.85;100108.91;3023518;78;20837;-67
2021/05/09 07:19:14;;;;;;;;;;;;;;;20.34;48.88;100111.22;3022849;78;20549;-65
2021/05/09 07:23:28;;;;;;;;;;;;;;;20.46;47.97;100109.66;3022845;78;20134;-66
2021/05/09 07:27:39;;;;;;;;;;;;;;;20.47;48.48;100122.14;3063317;77;20149;-67
2021/05/09 07:31:56;;;;;;;;;;;;;;;20.74;49.33;100122.36;3137474;74;20168;-65
2021/05/09 07:36:08;;;;;;;;;;;;;;;21.09;46.57;100123.73;2979072;79;20320;-67
2021/05/09 07:40:21;;;;;;;;;;;;;;;21.31;48.58;100118.77;3050929;77;20196;-66
2021/05/09 07:44:33;;;;;;;;;;;;;;;21.71;47.84;100120.80;3014282;79;20509;-65
2021/05/09 07:48:47;;;;;;;;;;;;;;;21.88;47.24;100114.52;3167598;74;20165;-66
2021/05/09 07:53:04;;;;;;;;;;;;;;;22.07;46.58;100117.78;3050793;77;20180;-65
2021/05/09 07:57:16;;;;;;;;;;;;;;;22.23;46.87;100118.44;3064042;77;20204;-65
2021/05/09 08:01:27;;;;;;;;;;;;;;;22.23;45.46;100122.50;3079386;76;20156;-66
2021/05/09 08:05:39;;;;;;;;;;;;;;;22.18;45.93;100114.13;3044672;77;20202;-64
2021/05/09 08:09:50;;;;;;;;;;;;;;;22.29;47.21;100116.24;3023973;78;20107;-65
2021/05/09 08:14:05;;;;;;;;;;;;;;;22.55;45.57;100110.53;3168013;74;20098;-64
2021/05/09 08:18:22;;;;;;;;;;;;;;;22.73;46.26;100114.48;3073550;77;20126;-67
2021/05/09 08:22:34;;;;;;;;;;;;;;;22.72;45.02;100103.33;3064197;77;20208;-67
2021/05/09 08:26:45;;;;;;;;;;;;;;;22.87;45.49;100099.86;3024093;78;20541;-66
2021/05/09 08:30:56;;;;;;;;;;;;;;;22.91;43.22;100099.74;3002048;78;20129;-66
2021/05/09 08:35:11;;;;;;;;;;;;;;;23.04;45.58;100096.70;3060225;76;20152;-65
2021/05/09 08:39:23;;;;;;;;;;;;;;;23.18;43.82;100093.41;3002811;78;20184;-65
2021/05/09 08:43:37;;;;;;;;;;;;;;;23.18;42.15;100106.44;3051967;76;20212;-67
2021/05/09 08:47:50;;;;;;;;;;;;;;;23.16;42.22;100104.47;3049553;77;20204;-66
2021/05/09 08:52:03;;;;;;;;;;;;;;;23.26;41.19;100105.40;3000472;78;20153;-64
2021/05/09 08:56:15;;;;;;;;;;;;;;;23.40;42.49;100094.00;3062509;77;20153;-68
2021/05/09 09:00:27;;;;;;;;;;;;;;;23.58;41.44;100095.14;3165268;74;20157;-66
2021/05/09 09:04:48;;;;;;;;;;;;;;;23.71;42.92;100092.90;3049960;77;20185;-65
2021/05/09 09:09:00;;;;;;;;;;;;;;;23.74;42.71;100086.48;3018959;77;20156;-67
2021/05/09 09:13:31;;;;;;;;;;;;;;;23.77;41.90;100083.88;2989099;77;20205;-66
2021/05/09 09:17:43;;;;;;;;;;;;;;;23.82;43.00;100080.81;3049857;76;20157;-69
2021/05/09 09:21:55;;;;;;;;;;;;;;;23.80;40.51;100077.48;3020145;77;20123;-67
2021/05/09 09:26:26;;;;;;;;;;;;;;;23.74;41.75;100073.45;3044008;76;20179;-64
2021/05/09 09:30:53;;;;;;;;;;;;;;;23.66;39.93;100079.97;3050541;77;20107;-63
2021/05/09 09:35:25;;;;;;;;;;;;;;;23.62;41.58;100081.46;2975405;78;20147;-66
2021/05/09 09:39:59;;;;;;;;;;;;;;;23.53;41.19;100078.98;3079684;76;20138;-65
2021/05/09 09:44:12;;;;;;;;;;;;;;;23.52;41.51;100067.81;3027231;76;20158;-65
2021/05/09 09:48:44;;;;;;;;;;;;;;;23.49;41.03;100066.90;2999673;77;20608;-66
2021/05/09 09:52:58;;;;;;;;;;;;;;;23.64;43.61;100060.36;3030936;78;20108;-65
2021/05/09 09:57:11;;;;;;;;;;;;;;;23.78;40.07;100057.02;2987608;77;20117;-60
2021/05/09 10:01:30;;;;;;;;;;;;;;;23.77;39.38;100062.15;3056595;77;20124;-60
2021/05/09 10:05:47;;;;;;;;;;;;;;;23.71;40.11;100057.60;2994772;77;20151;-61
2021/05/09 10:10:00;;;;;;;;;;;;;;;23.67;39.70;100055.84;3000412;78;20169;-66
2021/05/09 10:14:14;;;;;;;;;;;;;;;23.68;40.07;100056.15;3026046;78;20107;-65
2021/05/09 10:18:26;;;;;;;;;;;;;;;23.75;40.52;100059.64;2997183;78;20153;-65
2021/05/09 10:22:43;;;;;;;;;;;;;;;23.69;40.11;100044.23;2990705;77;20188;-63
2021/05/09 10:27:10;;;;;;;;;;;;;;;23.69;41.04;100042.88;3047790;76;20550;-63
2021/05/09 10:31:28;;;;;;;;;;;;;;;23.70;39.67;100032.32;3019754;77;20142;-65
2021/05/09 10:35:45;;;;;;;;;;;;;;;23.74;40.67;100029.47;3039144;76;20171;-65
2021/05/09 10:40:19;;;;;;;;;;;;;;;23.83;41.30;100019.17;3006579;77;20121;-65
2021/05/09 10:44:58;;;;;;;;;;;;;;;23.96;41.71;100011.44;2998371;77;20133;-65
2021/05/09 10:49:28;;;;;;;;;;;;;;;24.03;42.46;100008.20;3046024;77;20454;-64
2021/05/09 10:54:02;;;;;;;;;;;;;;;24.23;44.29;100013.98;3159682;74;20153;-65
2021/05/09 10:58:34;;;;;;;;;;;;;;;24.32;41.50;100007.19;3056640;77;20142;-65
2021/05/09 11:03:04;;;;;;;;;;;;;;;24.35;42.72;99993.14;3000346;77;20135;-65
2021/05/09 11:07:53;;;;;;;;;;;;;;;24.43;44.93;99992.02;3010237;77;20148;-65
2021/05/09 11:12:27;;;;;;;;;;;;;;;24.60;42.97;99988.20;3029919;77;20192;-65
2021/05/09 11:17:03;;;;;;;;;;;;;;;24.71;44.09;99981.69;3048563;77;20149;-65
2021/05/09 11:21:35;;;;;;;;;;;;;;;24.84;43.49;99976.14;3075603;76;20148;-65
2021/05/09 11:26:07;;;;;;;;;;;;;;;24.92;44.66;99955.41;3038100;76;20143;-65
2021/05/09 11:30:38;;;;;;;;;;;;;;;25.02;44.13;99954.86;3057363;76;20136;-63
2021/05/09 11:35:09;;;;;;;;;;;;;;;25.12;43.50;99942.61;3055425;77;20152;-63
2021/05/09 11:39:36;;;;;;;;;;;;;;;25.23;42.49;99943.17;3057784;76;20496;-65
2021/05/09 11:44:03;;;;;;;;;;;;;;;25.42;45.79;99933.06;3059934;76;20646;-63
2021/05/09 11:48:36;;;;;;;;;;;;;;;25.57;44.89;99933.19;3114803;76;20178;-62
2021/05/09 11:52:50;;;;;;;;;;;;;;;25.77;43.89;99936.92;3061284;77;20123;-64
2021/05/09 11:57:05;;;;;;;;;;;;;;;25.85;42.27;99931.66;3044559;77;20141;-63
2021/05/09 12:01:21;;;;;;;;;;;;;;;25.84;42.85;99920.47;3054915;77;20174;-65
2021/05/09 12:05:32;;;;;;;;;;;;;;;25.77;42.49;99921.95;2994759;78;20164;-64
2021/05/09 12:09:49;;;;;;;;;;;;;;;25.72;43.20;99914.47;3015817;79;20143;-61
2021/05/09 12:14:17;;;;;;;;;;;;;;;25.69;43.03;99910.05;2995752;79;20164;-66
2021/05/09 12:18:30;;;;;;;;;;;;;;;25.83;43.69;99902.47;2986077;77;20133;-68
2021/05/09 12:22:47;;;;;;;;;;;;;;;25.82;44.40;99896.19;3000802;78;20129;-67
2021/05/09 12:27:09;;;;;;;;;;;;;;;25.79;43.77;99904.83;2986380;79;20125;-65
2021/05/09 12:31:28;;;;;;;;;;;;;;;25.87;43.31;99900.41;3003480;78;20121;-60
2021/05/09 12:35:48;;;;;;;;;;;;;;;25.88;43.39;99902.59;3029110;76;20153;-68
2021/05/09 12:40:20;;;;;;;;;;;;;;;25.81;42.47;99888.56;2989234;79;20208;-62
2021/05/09 12:45:02;;;;;;;;;;;;;;;25.85;42.15;99893.53;3000370;77;20460;-63
2021/05/09 12:49:34;;;;;;;;;;;;;;;25.98;42.67;99887.00;2989708;78;20148;-62
2021/05/09 12:54:06;;;;;;;;;;;;;;;26.13;42.93;99879.70;2992612;79;20201;-64
2021/05/09 12:58:38;;;;;;;;;;;;;;;26.17;41.84;99879.56;3044202;77;20518;-64
2021/05/09 13:03:14;;;;;;;;;;;;;;;26.24;42.39;99885.70;2994094;79;20140;-65
2021/05/09 13:07:46;;;;;;;;;;;;;;;26.38;42.06;99877.56;2947920;78;20163;-65
2021/05/09 13:12:03;;;;;;;;;;;;;;;26.38;42.94;99873.47;3006523;77;20192;-65
2021/05/09 13:16:15;;;;;;;;;;;;;;;26.40;42.53;99871.04;3037262;76;20164;-64
2021/05/09 13:20:36;;;;;;;;;;;;;;;26.49;42.49;99870.94;2990157;78;20152;-66
2021/05/09 13:24:48;;;;;;;;;;;;;;;26.53;43.74;99866.68;3007422;77;20114;-66
2021/05/09 13:29:00;;;;;;;;;;;;;;;26.51;42.80;99868.27;3061957;76;20134;-66
2021/05/09 13:33:22;;;;;;;;;;;;;;;26.50;42.11;99864.41;2989839;77;20133;-66
2021/05/09 13:37:34;;;;;;;;;;;;;;;26.53;42.49;99869.41;3042597;77;20196;-66
2021/05/09 13:41:55;;;;;;;;;;;;;;;26.45;43.09;99862.95;3057893;77;20111;-66
2021/05/09 13:46:06;;;;;;;;;;;;;;;26.48;44.11;99857.02;3026065;78;20537;-66
2021/05/09 13:50:18;;;;;;;;;;;;;;;26.61;44.80;99854.01;3016870;79;20138;-66
2021/05/09 13:54:37;;;;;;;;;;;;;;;26.72;43.61;99837.82;3049113;75;20131;-66
2021/05/09 13:58:53;;;;;;;;;;;;;;;26.76;43.41;99834.37;3007536;77;20123;-67
2021/05/09 14:03:09;;;;;;;;;;;;;;;26.76;43.42;99833.55;3039749;77;20143;-65
2021/05/09 14:07:22;;;;;;;;;;;;;;;26.78;43.91;99821.86;2993421;77;20113;-61
2021/05/09 14:11:49;;;;;;;;;;;;;;;26.83;43.44;99820.58;3065835;77;20188;-61
2021/05/09 14:15:58;;;;;;;;;;;;;;;26.87;42.19;99813.58;3026448;77;20126;-60
2021/05/09 14:20:10;;;;;;;;;;;;;;;26.90;43.00;99811.72;3053610;77;20208;-61
2021/05/09 14:24:26;;;;;;;;;;;;;;;26.93;43.38;99811.26;3066816;76;20141;-60
2021/05/09 14:28:39;;;;;;;;;;;;;;;26.91;43.39;99809.28;3026364;78;20099;-61
2021/05/09 14:32:59;;;;;;;;;;;;;;;26.75;43.30;99799.98;3026310;78;20166;-61
2021/05/09 14:37:12;;;;;;;;;;;;;;;26.65;43.52;99797.89;3026087;78;20170;-60
2021/05/09 14:41:23;;;;;;;;;;;;;;;26.61;42.80;99795.37;3022397;79;20168;-60
2021/05/09 14:45:35;;;;;;;;;;;;;;;26.59;43.21;99792.06;3026005;77;20193;-60
2021/05/09 14:49:49;;;;;;;;;;;;;;;26.56;43.39;99790.35;3072175;77;20145;-61
2021/05/09 14:54:03;;;;;;;;;;;;;;;26.68;45.51;99786.20;3026585;78;20103;-61
2021/05/09 14:58:15;;;;;;;;;;;;;;;26.70;43.45;99785.41;3053359;77;20117;-61
2021/05/09 15:02:28;;;;;;;;;;;;;;;26.72;43.94;99780.02;3026391;78;20166;-61
2021/05/09 15:06:41;;;;;;;;;;;;;;;26.63;44.50;99776.86;3017191;79;20455;-61
2021/05/09 15:11:02;;;;;;;;;;;;;;;26.61;43.94;99777.64;3053176;77;20177;-61
2021/05/09 15:15:16;;;;;;;;;;;;;;;26.64;45.16;99782.61;3066704;76;20188;-60
2021/05/09 15:19:38;;;;;;;;;;;;;;;26.68;43.07;99778.02;3026215;77;20146;-61
2021/05/09 15:23:58;;;;;;;;;;;;;;;26.73;43.54;99772.67;3026430;78;20095;-61
2021/05/09 15:28:10;;;;;;;;;;;;;;;26.71;43.02;99765.25;3026408;78;20195;-61
2021/05/09 15:32:29;;;;;;;;;;;;;;;26.63;43.99;99770.59;3017263;79;20174;-61
2021/05/09 15:36:42;;;;;;;;;;;;;;;26.59;43.77;99769.41;3075075;77;20105;-61
2021/05/09 15:40:55;;;;;;;;;;;;;;;26.59;42.88;99766.67;3025925;78;20174;-61
2021/05/09 15:45:09;;;;;;;;;;;;;;;26.55;42.75;99770.45;3084971;77;20128;-61
2021/05/09 15:49:21;;;;;;;;;;;;;;;26.49;42.80;99765.95;3026248;78;20131;-61
2021/05/09 15:53:34;;;;;;;;;;;;;;;26.45;42.80;99760.19;3066400;77;20144;-60
2021/05/09 15:57:46;;;;;;;;;;;;;;;26.36;42.89;99758.38;3053363;77;20204;-61
2021/05/09 16:01:59;;;;;;;;;;;;;;;26.32;42.98;99753.10;3053132;77;20118;-61
2021/05/09 16:06:11;;;;;;;;;;;;;;;26.22;42.77;99740.11;3059052;76;20146;-60
2021/05/09 16:10:23;;;;;;;;;;;;;;;26.13;43.49;99742.06;3066339;76;20176;-61
2021/05/09 16:14:35;;;;;;;;;;;;;;;26.04;44.23;99747.91;2934881;80;20117;-60
2021/05/09 16:18:47;;;;;;;;;;;;;;;25.94;44.96;99751.78;3131156;75;20135;-61
2021/05/09 16:22:59;;;;;;;;;;;;;;;25.65;46.70;99751.73;3081767;76;20144;-60
2021/05/09 16:27:10;;;;;;;;;;;;;;;25.34;46.14;99753.73;3016841;79;20143;-61
2021/05/09 16:31:36;;;;;;;;;;;;;;;25.21;46.79;99756.16;3170095;74;20156;-61
2021/05/09 16:35:48;;;;;;;;;;;;;;;25.15;46.10;99738.88;3025579;78;20123;-60
2021/05/09 16:40:00;;;;;;;;;;;;;;;25.13;45.44;99745.09;3087330;75;20126;-60
2021/05/09 16:44:12;;;;;;;;;;;;;;;25.12;46.27;99731.19;3025755;78;20127;-60
2021/05/09 16:48:24;;;;;;;;;;;;;;;25.08;44.77;99724.56;3025671;77;20190;-60
2021/05/09 16:52:42;;;;;;;;;;;;;;;25.05;45.65;99727.22;3025572;78;20189;-60
2021/05/09 16:56:53;;;;;;;;;;;;;;;25.00;45.71;99720.85;3025625;78;20123;-61
2021/05/09 17:01:06;;;;;;;;;;;;;;;24.91;46.21;99717.64;3065862;77;20172;-61
2021/05/09 17:05:20;;;;;;;;;;;;;;;24.74;46.45;99718.81;3015214;78;20109;-60
2021/05/09 17:09:34;;;;;;;;;;;;;;;24.43;47.05;99719.41;3025385;78;20143;-60
2021/05/09 17:13:52;;;;;;;;;;;;;;;24.22;48.09;99725.66;3083563;77;20226;-60
2021/05/09 17:18:04;;;;;;;;;;;;;;;23.96;49.72;99728.97;2898530;78;20115;-60
2021/05/09 17:22:19;;;;;;;;;;;;;;;23.72;51.16;99723.41;3015862;79;20099;-60
2021/05/09 17:26:31;;;;;;;;;;;;;;;23.49;52.53;99722.20;3052166;77;20141;-60
2021/05/09 17:30:47;;;;;;;;;;;;;;;23.23;53.06;99730.05;3015598;79;20178;-60
2021/05/09 17:35:03;;;;;;;;;;;;;;;22.92;53.58;99725.02;3168736;74;20659;-60
2021/05/09 17:39:18;;;;;;;;;;;;;;;22.63;53.53;99720.02;3073318;77;20500;-60
2021/05/09 17:43:34;;;;;;;;;;;;;;;22.43;53.75;99711.98;3000396;77;20145;-60
2021/05/09 17:47:46;;;;;;;;;;;;;;;22.29;52.53;99709.03;3064996;77;20137;-60
2021/05/09 17:52:00;;;;;;;;;;;;;;;22.20;51.98;99707.10;3051692;77;20157;-61
2021/05/09 17:56:11;;;;;;;;;;;;;;;22.11;51.63;99715.49;3024385;78;20154;-61
2021/05/09 18:00:29;;;;;;;;;;;;;;;22.03;51.28;99714.40;3064514;77;20117;-60
2021/05/09 18:04:40;;;;;;;;;;;;;;;21.92;51.23;99715.06;3016570;77;20174;-61
2021/05/09 18:08:54;;;;;;;;;;;;;;;21.80;50.86;99714.36;3024447;78;20193;-60
2021/05/09 18:13:11;;;;;;;;;;;;;;;21.64;51.18;99710.77;3028268;77;20125;-65
2021/05/09 18:53:38;;;;;;;;;;;;;;;20.20;52.71;99714.69;2994510;77;20150;-62
2021/05/09 18:57:50;;;;;;;;;;;;;;;20.10;53.06;99728.06;2984747;78;20182;-67
2021/05/09 19:02:02;;;;;;;;;;;;;;;19.96;53.12;99727.19;3045213;76;20583;-65
2021/05/09 19:06:28;;;;;;;;;;;;;;;19.91;53.36;99727.44;3000497;79;20137;-65
2021/05/09 19:10:39;;;;;;;;;;;;;;;19.77;53.93;99730.59;3024149;77;20199;-63
2021/05/09 19:14:51;;;;;;;;;;;;;;;19.65;53.63;99737.05;3016151;77;20138;-67
2021/05/09 19:19:04;;;;;;;;;;;;;;;19.68;52.93;99735.33;3000319;79;20144;-64
2021/05/09 19:23:16;;;;;;;;;;;;;;;19.71;53.30;99749.77;3044269;77;20193;-64
2021/05/09 19:27:28;;;;;;;;;;;;;;;19.51;54.12;99749.13;3051117;76;20195;-65
2021/05/09 19:31:44;;;;;;;;;;;;;;;19.15;55.79;99747.42;3051952;77;20153;-65
2021/05/09 19:35:56;;;;;;;;;;;;;;;18.65;57.39;99741.98;3010383;78;20132;-67
2021/05/09 19:40:08;;;;;;;;;;;;;;;18.28;57.96;99740.67;3054673;76;20200;-64
2021/05/09 19:44:22;;;;;;;;;;;;;;;18.07;58.25;99744.96;3023877;78;20167;-64
2021/05/09 19:48:34;;;;;;;;;;;;;;;17.86;59.69;99743.03;3120091;74;20121;-64
2021/05/09 19:52:46;;;;;;;;;;;;;;;17.63;60.58;99731.02;3015314;78;20189;-64
2021/05/09 19:57:00;;;;;;;;;;;;;;;17.33;62.00;99728.34;3047863;76;20224;-65
2021/05/09 20:01:11;;;;;;;;;;;;;;;17.02;62.91;99736.00;2998811;77;20113;-65
2021/05/09 20:05:23;;;;;;;;;;;;;;;16.79;63.14;99740.87;3030871;77;20165;-65
2021/05/09 20:09:36;;;;;;;;;;;;;;;16.75;62.94;99731.51;3038863;76;20180;-64
2021/05/09 20:13:50;;;;;;;;;;;;;;;16.86;62.01;99736.44;3059677;77;20263;-64
2021/05/09 20:18:02;;;;;;;;;;;;;;;17.01;61.41;99738.37;2984566;79;20156;-65
2021/05/09 20:22:15;;;;;;;;;;;;;;;16.84;62.74;99740.66;3104063;74;20141;-64
2021/05/09 20:26:27;;;;;;;;;;;;;;;16.48;64.28;99741.75;3030887;77;20194;-64
2021/05/09 20:30:38;;;;;;;;;;;;;;;16.26;65.03;99737.52;3021939;78;20572;-64
2021/05/09 20:34:49;;;;;;;;;;;;;;;16.21;65.28;99739.91;3165623;74;20721;-65
2021/05/09 20:39:02;;;;;;;;;;;;;;;16.12;65.49;99738.62;3062328;77;20152;-64
2021/05/09 20:43:14;;;;;;;;;;;;;;;16.03;65.55;99736.97;3016842;78;20176;-64
2021/05/09 20:47:25;;;;;;;;;;;;;;;15.89;66.18;99736.36;3026103;78;20199;-64
2021/05/09 20:51:39;;;;;;;;;;;;;;;15.58;67.26;99735.27;3061180;77;20137;-67
2021/05/09 20:55:51;;;;;;;;;;;;;;;15.22;68.54;99732.99;3021392;78;20202;-69
2021/05/09 21:00:06;;;;;;;;;;;;;;;14.98;68.91;99730.20;3061706;77;20204;-67
2021/05/09 21:04:19;;;;;;;;;;;;;;;14.95;68.13;99725.67;3061233;77;20192;-69
2021/05/09 21:08:31;;;;;;;;;;;;;;;14.97;68.47;99729.02;3016379;78;21093;-67
2021/05/09 21:12:43;;;;;;;;;;;;;;;15.07;67.53;99719.46;3164917;74;20137;-68
2021/05/09 21:16:55;;;;;;;;;;;;;;;15.29;66.25;99736.69;3061401;77;20156;-67
2021/05/09 21:21:08;;;;;;;;;;;;;;;15.51;64.97;99727.59;3060867;77;20148;-66
2021/05/09 21:25:21;;;;;;;;;;;;;;;15.63;64.05;99728.91;3062864;76;20495;-65
2021/05/09 21:29:34;;;;;;;;;;;;;;;15.68;63.73;99736.41;3069715;77;20144;-67
2021/05/09 21:33:46;;;;;;;;;;;;;;;15.67;63.53;99732.05;2993723;79;20141;-66
2021/05/09 21:37:58;;;;;;;;;;;;;;;15.70;63.24;99733.89;2968814;78;20155;-66
2021/05/09 21:42:11;;;;;;;;;;;;;;;15.77;62.79;99734.53;3061398;77;20520;-67
2021/05/09 21:46:22;;;;;;;;;;;;;;;15.82;62.37;99733.01;3146850;74;20481;-65
2021/05/09 21:50:34;;;;;;;;;;;;;;;15.83;62.43;99734.69;3039994;77;20123;-66
2021/05/09 21:54:47;;;;;;;;;;;;;;;15.80;62.14;99735.52;3037678;76;20132;-66
2021/05/09 21:58:59;;;;;;;;;;;;;;;15.79;61.94;99727.15;3028156;77;20194;-67
2021/05/09 22:03:11;;;;;;;;;;;;;;;15.81;61.72;99731.34;3039445;76;20145;-67
2021/05/09 22:07:24;;;;;;;;;;;;;;;15.76;62.22;99722.14;3008219;77;20491;-66
2021/05/09 22:11:36;;;;;;;;;;;;;;;15.53;63.56;99718.87;3061422;77;20212;-65
2021/05/09 22:15:49;;;;;;;;;;;;;;;15.23;64.67;99718.10;3065013;76;20113;-66
2021/05/09 22:20:01;;;;;;;;;;;;;;;14.91;65.61;99710.95;3010093;78;20502;-66
2021/05/09 22:24:15;;;;;;;;;;;;;;;14.69;66.01;99711.41;3040576;77;20132;-66
2021/05/09 22:28:27;;;;;;;;;;;;;;;14.56;66.66;99712.42;3070023;77;20168;-67
2021/05/09 22:32:40;;;;;;;;;;;;;;;14.44;67.07;99706.53;2980520;77;20184;-65
2021/05/09 22:36:51;;;;;;;;;;;;;;;14.34;67.26;99705.34;3061335;77;20137;-65